createdAt,value
2022-09-10T00:01:28.555Z,15.59
2022-09-10T00:03:56.668Z,15.52
2022-09-10T00:06:27.981Z,15.43
2022-09-10T00:08:59.327Z,15.50
2022-09-10T00:11:31.787Z,15.45
2022-09-10T00:14:06.927Z,15.36
2022-09-10T00:16:35.078Z,15.40
2022-09-10T00:19:02.849Z,15.38
2022-09-10T00:21:30.500Z,15.40
2022-09-10T00:23:58.793Z,15.37
2022-09-10T00:26:33.163Z,15.28
2022-09-10T00:29:00.366Z,15.47
2022-09-10T00:31:30.600Z,15.42
2022-09-10T00:33:59.334Z,15.36
2022-09-10T00:36:30.465Z,15.32
2022-09-10T00:39:02.484Z,15.38
2022-09-10T00:41:30.974Z,15.39
2022-09-10T00:44:04.146Z,15.32
2022-09-10T00:46:51.661Z,15.35
2022-09-10T00:49:33.623Z,15.42
2022-09-10T00:52:02.008Z,15.25
2022-09-10T00:54:33.959Z,15.14
2022-09-10T00:57:06.260Z,15.30
2022-09-10T00:59:34.411Z,15.29
2022-09-10T01:02:02.721Z,15.13
2022-09-10T01:04:32.447Z,15.24
2022-09-10T01:07:01.093Z,15.32
2022-09-10T01:09:29.473Z,15.19
2022-09-10T01:12:16.126Z,15.17
2022-09-10T01:14:53.052Z,15.07
2022-09-10T01:17:42.011Z,15.15
2022-09-10T01:20:16.890Z,15.10
2022-09-10T01:22:54.747Z,14.85
2022-09-10T01:25:49.704Z,14.88
2022-09-10T01:28:33.087Z,14.91
2022-09-10T01:31:10.900Z,14.90
2022-09-10T01:33:47.210Z,14.78
2022-09-10T01:36:21.592Z,14.69
2022-09-10T01:38:50.942Z,14.62
2022-09-10T01:41:23.484Z,14.50
2022-09-10T01:43:50.812Z,14.38
2022-09-10T01:46:27.579Z,14.44
2022-09-10T01:49:00.803Z,14.34
2022-09-10T01:51:57.908Z,14.34
2022-09-10T01:54:46.919Z,14.31
2022-09-10T01:57:36.837Z,14.27
2022-09-10T02:00:10.138Z,14.33
2022-09-10T02:02:57.792Z,14.31
2022-09-10T02:05:30.449Z,14.34
2022-09-10T02:08:09.114Z,14.37
2022-09-10T02:10:53.093Z,14.45
2022-09-10T02:13:24.034Z,14.40
2022-09-10T02:16:15.272Z,14.43
2022-09-10T02:19:32.965Z,14.39
2022-09-10T02:22:04.917Z,14.34
2022-09-10T02:24:32.284Z,14.29
2022-09-10T02:27:00.758Z,14.21
2022-09-10T02:29:29.399Z,14.15
2022-09-10T02:31:56.566Z,14.17
2022-09-10T02:34:24.651Z,14.22
2022-09-10T02:36:51.956Z,14.14
2022-09-10T02:39:20.092Z,14.04
2022-09-10T02:41:48.251Z,14.00
2022-09-10T02:44:16.505Z,14.18
2022-09-10T02:46:45.397Z,14.08
2022-09-10T02:49:15.087Z,14.04
2022-09-10T02:51:45.240Z,13.95
2022-09-10T02:54:13.075Z,13.91
2022-09-10T02:56:40.477Z,13.92
2022-09-10T02:59:07.689Z,13.93
2022-09-10T03:01:36.535Z,13.88
2022-09-10T03:04:05.887Z,13.90
2022-09-10T03:06:33.158Z,13.91
2022-09-10T03:09:00.456Z,13.77
2022-09-10T03:11:27.862Z,13.67
2022-09-10T03:13:55.821Z,13.61
2022-09-10T03:16:24.449Z,13.58
2022-09-10T03:18:52.564Z,13.41
2022-09-10T03:21:22.206Z,13.42
2022-09-10T03:23:51.117Z,13.41
2022-09-10T03:26:25.864Z,13.33
2022-09-10T03:28:54.391Z,13.32
2022-09-10T03:31:24.673Z,13.24
2022-09-10T03:33:51.952Z,13.23
2022-09-10T03:36:21.011Z,13.21
2022-09-10T03:38:50.197Z,13.39
2022-09-10T03:41:17.583Z,13.49
2022-09-10T03:43:45.558Z,13.36
2022-09-10T03:46:13.134Z,13.18
2022-09-10T03:48:46.111Z,13.31
2022-09-10T03:51:14.142Z,13.24
2022-09-10T03:53:42.175Z,13.26
2022-09-10T03:56:12.992Z,13.37
2022-09-10T03:58:41.266Z,13.46
2022-09-10T04:01:10.181Z,13.38
2022-09-10T04:03:42.185Z,13.41
2022-09-10T04:06:14.394Z,13.37
2022-09-10T04:08:43.458Z,13.35
2022-09-10T04:11:16.639Z,13.29
2022-09-10T04:13:49.144Z,13.27
2022-09-10T04:16:18.218Z,13.21
2022-09-10T04:18:45.658Z,13.38
2022-09-10T04:21:15.961Z,13.41
2022-09-10T04:23:43.746Z,13.44
2022-09-10T04:26:14.742Z,13.42
2022-09-10T04:28:44.461Z,13.52
2022-09-10T04:31:12.777Z,13.68
2022-09-10T04:33:41.046Z,13.57
2022-09-10T04:36:08.541Z,13.57
2022-09-10T04:38:42.844Z,13.54
2022-09-10T04:41:15.674Z,13.74
2022-09-10T04:43:44.801Z,13.83
2022-09-10T04:46:12.947Z,13.72
2022-09-10T04:48:44.179Z,13.70
2022-09-10T04:51:16.802Z,13.66
2022-09-10T04:53:47.078Z,13.70
2022-09-10T04:56:15.883Z,13.59
2022-09-10T04:58:44.850Z,13.55
2022-09-10T05:01:14.736Z,13.42
2022-09-10T05:03:45.058Z,13.40
2022-09-10T05:06:13.078Z,13.63
2022-09-10T05:08:41.615Z,13.54
2022-09-10T05:11:10.262Z,13.54
2022-09-10T05:13:37.525Z,13.59
2022-09-10T05:16:07.439Z,13.59
2022-09-10T05:18:34.894Z,13.57
2022-09-10T05:21:04.253Z,13.57
2022-09-10T05:23:33.550Z,13.57
2022-09-10T05:26:01.929Z,13.65
2022-09-10T05:28:30.518Z,13.69
2022-09-10T05:30:59.073Z,13.76
2022-09-10T05:33:29.356Z,13.76
2022-09-10T05:35:56.652Z,13.60
2022-09-10T05:38:24.817Z,13.66
2022-09-10T05:40:52.389Z,13.68
2022-09-10T05:43:21.001Z,13.60
2022-09-10T05:45:48.853Z,13.64
2022-09-10T05:48:16.354Z,13.63
2022-09-10T05:50:45.587Z,13.52
2022-09-10T05:53:13.888Z,13.66
2022-09-10T05:55:41.019Z,13.64
2022-09-10T05:58:08.223Z,13.73
2022-09-10T06:00:38.921Z,13.82
2022-09-10T06:03:06.756Z,13.91
2022-09-10T06:05:40.447Z,13.87
2022-09-10T06:08:08.944Z,13.87
2022-09-10T06:10:39.499Z,13.99
2022-09-10T06:13:07.469Z,14.02
2022-09-10T06:15:40.191Z,14.26
2022-09-10T06:18:11.565Z,14.14
2022-09-10T06:20:39.667Z,14.38
2022-09-10T06:23:10.074Z,14.63
2022-09-10T06:25:39.503Z,14.67
2022-09-10T06:28:07.593Z,14.69
2022-09-10T06:30:36.427Z,14.67
2022-09-10T06:33:06.340Z,14.88
2022-09-10T06:35:37.351Z,15.05
2022-09-10T06:38:05.393Z,15.50
2022-09-10T06:40:34.840Z,16.00
2022-09-10T06:43:02.236Z,16.08
2022-09-10T06:45:53.798Z,16.19
2022-09-10T06:48:47.982Z,16.33
2022-09-10T06:51:18.638Z,16.45
2022-09-10T06:53:46.815Z,16.37
2022-09-10T06:56:16.115Z,16.39
2022-09-10T06:58:46.134Z,16.47
2022-09-10T07:01:19.036Z,16.29
2022-09-10T07:03:59.548Z,16.07
2022-09-10T07:06:34.527Z,16.11
2022-09-10T07:09:07.642Z,15.90
2022-09-10T07:12:05.075Z,15.99
2022-09-10T07:14:39.996Z,16.06
2022-09-10T07:17:11.973Z,16.25
2022-09-10T07:19:40.691Z,16.47
2022-09-10T07:22:34.432Z,16.56
2022-09-10T07:25:07.604Z,16.56
2022-09-10T07:27:51.706Z,16.39
2022-09-10T07:30:19.007Z,16.54
2022-09-10T07:32:48.812Z,16.56
2022-09-10T07:35:18.963Z,16.73
2022-09-10T07:37:46.796Z,16.52
2022-09-10T07:40:15.546Z,16.28
2022-09-10T07:42:44.657Z,16.26
2022-09-10T07:45:15.862Z,16.33
2022-09-10T07:47:46.939Z,16.26
2022-09-10T07:50:15.787Z,16.31
2022-09-10T07:52:43.505Z,16.26
2022-09-10T07:55:18.766Z,16.21
2022-09-10T07:57:46.599Z,16.22
2022-09-10T08:00:20.153Z,16.11
2022-09-10T08:02:52.626Z,16.21
2022-09-10T08:05:24.063Z,16.32
2022-09-10T08:07:54.321Z,16.23
2022-09-10T08:10:24.695Z,16.36
2022-09-10T08:12:53.585Z,16.44
2022-09-10T08:15:27.225Z,16.46
2022-09-10T08:17:56.145Z,16.76
2022-09-10T08:20:25.322Z,16.99
2022-09-10T08:22:57.516Z,16.72
2022-09-10T08:25:28.887Z,16.48
2022-09-10T08:27:58.198Z,16.44
2022-09-10T08:30:26.387Z,16.48
2022-09-10T08:32:55.030Z,16.70
2022-09-10T08:35:22.602Z,16.72
2022-09-10T08:37:53.855Z,16.80
2022-09-10T08:40:23.738Z,16.90
2022-09-10T08:42:52.822Z,16.92
2022-09-10T08:45:32.859Z,16.75
2022-09-10T08:48:08.828Z,16.90
2022-09-10T08:50:47.429Z,17.13
2022-09-10T08:53:42.029Z,17.32
2022-09-10T08:56:15.736Z,17.87
2022-09-10T08:59:29.208Z,18.35
2022-09-10T09:02:37.772Z,18.15
2022-09-10T09:05:20.186Z,18.16
2022-09-10T09:07:52.002Z,17.68
2022-09-10T09:10:25.702Z,17.71
2022-09-10T09:13:18.646Z,17.70
2022-09-10T09:15:59.122Z,17.50
2022-09-10T09:18:44.477Z,17.13
2022-09-10T09:21:26.169Z,16.86
2022-09-10T09:24:12.801Z,16.70
2022-09-10T09:26:50.178Z,16.67
2022-09-10T09:29:38.143Z,16.91
2022-09-10T09:32:06.719Z,17.35
2022-09-10T09:34:39.656Z,17.46
2022-09-10T09:37:21.453Z,17.53
2022-09-10T09:40:05.505Z,17.73
2022-09-10T09:42:44.182Z,18.12
2022-09-10T09:45:23.582Z,18.43
2022-09-10T09:47:52.401Z,18.28
2022-09-10T09:50:19.898Z,18.25
2022-09-10T09:52:47.581Z,18.57
2022-09-10T09:55:28.143Z,18.82
2022-09-10T09:58:21.242Z,18.33
2022-09-10T10:00:52.580Z,17.97
2022-09-10T10:03:26.649Z,17.66
2022-09-10T10:06:03.028Z,17.80
2022-09-10T10:08:34.469Z,17.99
2022-09-10T10:15:36.584Z,18.96
2022-09-10T10:18:28.996Z,19.43
2022-09-10T10:21:20.112Z,19.87
2022-09-10T10:23:48.606Z,19.46
2022-09-10T10:26:21.600Z,18.96
2022-09-10T10:28:51.733Z,18.46
2022-09-10T10:31:20.078Z,18.25
2022-09-10T10:34:08.218Z,18.52
2022-09-10T10:37:33.718Z,18.61
2022-09-10T10:40:30.624Z,18.85
2022-09-10T10:43:23.004Z,18.93
2022-09-10T10:46:10.021Z,19.18
2022-09-10T10:48:44.738Z,19.50
2022-09-10T10:51:25.155Z,19.82
2022-09-10T10:54:10.664Z,20.02
2022-09-10T10:56:55.519Z,20.07
2022-09-10T10:59:41.049Z,19.80
2022-09-10T11:02:15.158Z,19.08
2022-09-10T11:04:48.728Z,18.71
2022-09-10T11:07:23.194Z,18.50
2022-09-10T11:10:25.350Z,18.38
2022-09-10T11:13:11.042Z,18.35
2022-09-10T11:15:46.642Z,18.14
2022-09-10T11:18:33.485Z,17.99
2022-09-10T11:21:10.322Z,17.99
2022-09-10T11:24:17.181Z,18.01
2022-09-10T11:26:54.219Z,17.88
2022-09-10T11:29:36.489Z,17.90
2022-09-10T11:32:07.080Z,17.89
2022-09-10T11:34:49.413Z,18.47
2022-09-10T11:37:25.295Z,18.91
2022-09-10T11:39:56.134Z,19.30
2022-09-10T11:42:29.010Z,19.75
2022-09-10T11:45:06.479Z,20.05
2022-09-10T11:47:40.363Z,20.34
2022-09-10T11:50:13.622Z,20.66
2022-09-10T11:52:41.054Z,20.45
2022-09-10T11:55:17.650Z,20.18
2022-09-10T11:58:15.864Z,19.88
2022-09-10T12:01:05.645Z,19.51
2022-09-10T12:03:52.403Z,19.82
2022-09-10T12:06:26.425Z,19.58
2022-09-10T12:09:12.494Z,19.19
2022-09-10T12:12:05.986Z,18.56
2022-09-10T12:14:33.343Z,18.17
2022-09-10T12:17:19.512Z,18.34
2022-09-10T12:19:54.818Z,18.91
2022-09-10T12:22:30.714Z,19.53
2022-09-10T12:25:03.082Z,19.93
2022-09-10T12:27:53.969Z,20.08
2022-09-10T12:30:36.299Z,19.78
2022-09-10T12:33:12.356Z,19.34
2022-09-10T12:35:48.513Z,19.08
2022-09-10T12:38:49.976Z,19.11
2022-09-10T12:41:20.308Z,19.13
2022-09-10T12:43:47.389Z,19.02
2022-09-10T12:46:14.599Z,18.63
2022-09-10T12:48:47.953Z,18.54
2022-09-10T12:51:20.963Z,18.51
2022-09-10T12:54:15.474Z,18.47
2022-09-10T12:57:20.812Z,18.50
2022-09-10T13:00:06.782Z,18.76
2022-09-10T13:02:40.408Z,18.81
2022-09-10T13:05:44.883Z,18.78
2022-09-10T13:08:28.196Z,18.88
2022-09-10T13:10:56.403Z,18.71
2022-09-10T13:13:44.926Z,18.79
2022-09-10T13:16:17.774Z,18.75
2022-09-10T13:18:46.771Z,18.61
2022-09-10T13:21:22.911Z,18.68
2022-09-10T13:23:53.632Z,18.57
2022-09-10T13:26:37.414Z,18.71
2022-09-10T13:29:11.375Z,19.16
2022-09-10T13:31:45.329Z,19.39
2022-09-10T13:34:15.476Z,19.52
2022-09-10T13:37:11.292Z,19.64
2022-09-10T13:40:00.323Z,19.73
2022-09-10T13:43:03.054Z,19.82
2022-09-10T13:45:48.751Z,19.93
2022-09-10T13:48:21.043Z,19.99
2022-09-10T13:50:52.716Z,19.99
2022-09-10T13:53:21.616Z,20.19
2022-09-10T13:55:58.637Z,20.36
2022-09-10T13:58:31.917Z,20.64
2022-09-10T14:01:02.828Z,20.48
2022-09-10T14:03:40.557Z,20.33
2022-09-10T14:06:25.912Z,20.43
2022-09-10T14:08:57.251Z,20.61
2022-09-10T14:11:34.993Z,20.00
2022-09-10T14:14:19.815Z,19.38
2022-09-10T14:16:52.558Z,18.78
2022-09-10T14:19:29.626Z,18.39
2022-09-10T14:21:57.396Z,18.13
2022-09-10T14:24:27.516Z,18.02
2022-09-10T14:27:06.747Z,17.95
2022-09-10T14:29:34.002Z,17.71
2022-09-10T14:32:23.106Z,17.70
2022-09-10T14:34:50.588Z,17.77
2022-09-10T14:37:29.449Z,18.12
2022-09-10T14:39:57.101Z,18.54
2022-09-10T14:42:27.339Z,18.97
2022-09-10T14:44:54.955Z,19.39
2022-09-10T14:47:34.996Z,19.74
2022-09-10T14:50:34.342Z,19.45
2022-09-10T14:53:01.760Z,19.23
2022-09-10T14:55:32.015Z,19.25
2022-09-10T14:57:59.344Z,19.18
2022-09-10T15:00:26.642Z,18.86
2022-09-10T15:02:57.309Z,18.62
2022-09-10T15:05:24.789Z,18.62
2022-09-10T15:07:51.981Z,18.70
2022-09-10T15:10:19.298Z,18.65
2022-09-10T15:12:49.992Z,18.60
2022-09-10T15:15:18.099Z,18.37
2022-09-10T15:17:45.309Z,18.20
2022-09-10T15:20:14.611Z,17.94
2022-09-10T15:22:43.854Z,17.61
2022-09-10T15:25:38.064Z,17.43
2022-09-10T15:28:07.572Z,17.36
2022-09-10T15:30:36.022Z,17.19
2022-09-10T15:33:04.822Z,17.10
2022-09-10T15:35:32.236Z,16.93
2022-09-10T15:38:02.571Z,16.95
2022-09-10T15:40:29.789Z,17.08
2022-09-10T15:42:57.797Z,17.01
2022-09-10T15:45:25.318Z,16.80
2022-09-10T15:47:52.429Z,16.68
2022-09-10T15:50:20.297Z,16.63
2022-09-10T15:52:47.448Z,16.49
2022-09-10T15:55:14.607Z,16.43
2022-09-10T15:57:42.039Z,16.39
2022-09-10T16:00:09.909Z,16.32
2022-09-10T16:02:37.068Z,16.25
2022-09-10T16:05:06.060Z,16.27
2022-09-10T16:07:33.519Z,16.30
2022-09-10T16:10:01.417Z,16.39
2022-09-10T16:12:28.480Z,16.46
2022-09-10T16:14:55.837Z,16.47
2022-09-10T16:17:22.986Z,16.61
2022-09-10T16:19:51.552Z,16.92
2022-09-10T16:22:20.756Z,17.09
2022-09-10T16:24:48.171Z,16.93
2022-09-10T16:27:17.500Z,16.95
2022-09-10T16:29:48.483Z,17.10
2022-09-10T16:32:15.790Z,17.20
2022-09-10T16:34:42.939Z,17.28
2022-09-10T16:37:10.120Z,17.18
2022-09-10T16:39:37.292Z,17.16
2022-09-10T16:42:04.523Z,16.98
2022-09-10T16:44:32.439Z,17.00
2022-09-10T16:46:59.642Z,17.19
2022-09-10T16:49:27.494Z,17.28
2022-09-10T16:51:54.751Z,17.43
2022-09-10T16:54:22.942Z,17.44
2022-09-10T16:56:50.559Z,17.37
2022-09-10T16:59:20.792Z,17.24
2022-09-10T17:01:49.127Z,17.03
2022-09-10T17:04:22.305Z,16.90
2022-09-10T17:06:52.168Z,16.72
2022-09-10T17:09:19.365Z,16.71
2022-09-10T17:11:46.565Z,16.64
2022-09-10T17:14:13.673Z,16.60
2022-09-10T17:16:42.229Z,16.60
2022-09-10T17:19:15.528Z,16.50
2022-09-10T17:21:44.970Z,16.40
2022-09-10T17:24:13.171Z,16.35
2022-09-10T17:26:41.569Z,16.32
2022-09-10T17:29:17.057Z,16.34
2022-09-10T17:31:46.619Z,16.33
2022-09-10T17:34:15.363Z,16.23
2022-09-10T17:36:45.304Z,16.16
2022-09-10T17:39:13.161Z,16.14
2022-09-10T17:41:41.058Z,16.09
2022-09-10T17:44:08.324Z,16.00
2022-09-10T17:46:36.275Z,15.89
2022-09-10T17:49:04.352Z,15.87
2022-09-10T17:51:34.098Z,15.80
2022-09-10T17:54:03.310Z,15.78
2022-09-10T17:56:31.478Z,15.74
2022-09-10T17:59:04.189Z,15.75
2022-09-10T18:01:37.768Z,15.76
2022-09-10T18:04:06.448Z,15.80
2022-09-10T18:06:36.765Z,15.75
2022-09-10T18:09:05.413Z,15.79
2022-09-10T18:11:35.693Z,15.76
2022-09-10T18:14:03.827Z,15.77
2022-09-10T18:16:33.663Z,15.71
2022-09-10T18:19:03.439Z,15.70
2022-09-10T18:21:36.484Z,15.72
2022-09-10T18:24:22.820Z,15.76
2022-09-10T18:26:53.864Z,15.76
2022-09-10T18:29:24.397Z,15.73
2022-09-10T18:31:53.988Z,15.70
2022-09-10T18:34:24.101Z,15.65
2022-09-10T18:36:54.560Z,15.63
2022-09-10T18:39:23.442Z,15.66
2022-09-10T18:41:51.659Z,15.60
2022-09-10T18:44:21.837Z,15.57
2022-09-10T18:46:50.634Z,15.51
2022-09-10T18:49:21.470Z,15.43
2022-09-10T18:51:50.885Z,15.33
2022-09-10T18:54:19.028Z,15.27
2022-09-10T18:56:48.181Z,15.26
2022-09-10T18:59:20.314Z,15.20
2022-09-10T19:01:49.145Z,15.16
2022-09-10T19:04:20.047Z,15.15
2022-09-10T19:06:48.773Z,15.09
2022-09-10T19:09:18.786Z,15.07
2022-09-10T19:11:48.599Z,15.20
2022-09-10T19:14:42.012Z,15.29
2022-09-10T19:17:09.172Z,15.22
2022-09-10T19:19:36.446Z,15.19
2022-09-10T19:22:10.489Z,15.08
2022-09-10T19:24:54.627Z,15.18
2022-09-10T19:27:22.955Z,15.19
2022-09-10T19:29:50.547Z,15.08
2022-09-10T19:32:19.936Z,15.02
2022-09-10T19:34:51.430Z,15.03
2022-09-10T19:37:19.620Z,15.00
2022-09-10T19:39:47.707Z,14.97
2022-09-10T19:42:15.199Z,15.22
2022-09-10T19:44:42.332Z,15.17
2022-09-10T19:47:09.762Z,15.16
2022-09-10T19:49:36.934Z,15.33
2022-09-10T19:52:04.412Z,15.23
2022-09-10T19:54:32.005Z,15.21
2022-09-10T19:56:59.133Z,15.21
2022-09-10T19:59:26.302Z,15.26
2022-09-10T20:01:53.885Z,15.20
2022-09-10T20:04:21.353Z,15.14
2022-09-10T20:06:50.375Z,15.13
2022-09-10T20:09:18.025Z,15.11
2022-09-10T20:11:45.304Z,15.05
2022-09-10T20:14:14.285Z,15.10
2022-09-10T20:16:44.024Z,15.11
2022-09-10T20:19:13.809Z,15.29
2022-09-10T20:21:42.263Z,15.28
2022-09-10T20:24:10.648Z,15.23
2022-09-10T20:26:39.882Z,15.16
2022-09-10T20:29:12.158Z,15.14
2022-09-10T20:31:41.343Z,15.17
2022-09-10T20:34:12.844Z,15.25
2022-09-10T20:36:42.483Z,15.20
2022-09-10T20:39:13.649Z,15.07
2022-09-10T20:41:41.787Z,15.11
2022-09-10T20:44:13.554Z,15.02
2022-09-10T20:46:44.000Z,14.98
2022-09-10T20:49:12.607Z,14.94
2022-09-10T20:51:40.988Z,15.01
2022-09-10T20:54:11.510Z,14.99
2022-09-10T20:56:39.131Z,14.99
2022-09-10T20:59:06.287Z,14.89
2022-09-10T21:01:34.195Z,14.85
2022-09-10T21:04:01.616Z,14.88
2022-09-10T21:06:31.621Z,14.79
2022-09-10T21:09:00.786Z,14.74
2022-09-10T21:11:31.103Z,14.67
2022-09-10T21:14:00.356Z,14.68
2022-09-10T21:16:33.208Z,14.64
2022-09-10T21:19:12.418Z,14.64
2022-09-10T21:21:41.102Z,14.53
2022-09-10T21:24:11.707Z,14.51
2022-09-10T21:26:40.673Z,14.52
2022-09-10T21:29:11.243Z,14.51
2022-09-10T21:31:39.268Z,14.47
2022-09-10T21:34:06.314Z,14.47
2022-09-10T21:36:36.293Z,14.49
2022-09-10T21:39:06.749Z,14.38
2022-09-10T21:41:41.691Z,14.34
2022-09-10T21:44:14.217Z,14.25
2022-09-10T21:46:42.875Z,14.23
2022-09-10T21:49:10.506Z,14.24
2022-09-10T21:51:38.083Z,14.19
2022-09-10T21:54:05.613Z,14.21
2022-09-10T21:56:33.103Z,14.12
2022-09-10T21:59:00.764Z,14.11
2022-09-10T22:01:30.781Z,14.07
2022-09-10T22:04:00.562Z,14.06
2022-09-10T22:06:32.982Z,14.05
2022-09-10T22:09:04.148Z,14.01
2022-09-10T22:11:34.442Z,13.98
2022-09-10T22:14:07.360Z,13.91
2022-09-10T22:16:35.801Z,13.92
2022-09-10T22:19:06.838Z,13.96
2022-09-10T22:21:38.122Z,13.99
2022-09-10T22:24:06.640Z,13.97
2022-09-10T22:26:34.421Z,14.02
2022-09-10T22:29:03.164Z,14.01
2022-09-10T22:31:32.875Z,13.98
2022-09-10T22:34:02.987Z,13.98
2022-09-10T22:36:32.961Z,13.95
2022-09-10T22:39:02.483Z,13.93
2022-09-10T22:41:31.771Z,13.94
2022-09-10T22:43:59.169Z,13.92
2022-09-10T22:46:27.031Z,13.85
2022-09-10T22:48:54.571Z,13.83
2022-09-10T22:51:24.733Z,13.84
2022-09-10T22:53:53.852Z,13.83
2022-09-10T22:56:22.854Z,13.78
2022-09-10T22:58:53.437Z,13.79
2022-09-10T23:01:23.295Z,13.73
2022-09-10T23:03:52.131Z,13.77
2022-09-10T23:06:22.138Z,13.76
2022-09-10T23:08:52.271Z,13.77
2022-09-10T23:11:25.292Z,13.78
2022-09-10T23:13:57.539Z,13.84
2022-09-10T23:16:31.912Z,13.82
2022-09-10T23:19:01.051Z,13.80
2022-09-10T23:21:29.651Z,13.80
2022-09-10T23:24:02.787Z,13.78
2022-09-10T23:26:30.648Z,13.83
2022-09-10T23:28:58.341Z,13.82
2022-09-10T23:31:28.007Z,13.88
2022-09-10T23:34:00.301Z,13.94
2022-09-10T23:36:31.333Z,13.94
2022-09-10T23:38:59.377Z,13.93
2022-09-10T23:41:26.391Z,13.84
2022-09-10T23:43:54.301Z,13.84
2022-09-10T23:46:21.721Z,13.79
2022-09-10T23:48:49.461Z,13.83
2022-09-10T23:51:19.264Z,13.82
2022-09-10T23:53:48.192Z,13.74
2022-09-10T23:56:17.734Z,13.71
2022-09-10T23:58:45.763Z,13.64
